createdAt,value
2016-04-07T00:00:08.745Z,0
2016-04-07T00:01:08.027Z,0
2016-04-07T00:02:08.764Z,0
2016-04-07T00:03:08.767Z,0
2016-04-07T00:04:08.755Z,0
2016-04-07T00:05:08.757Z,0
2016-04-07T00:06:08.744Z,0
2016-04-07T00:07:08.778Z,0
2016-04-07T00:08:08.750Z,0
2016-04-07T00:09:08.768Z,0
2016-04-07T00:10:08.755Z,0
2016-04-07T00:11:08.774Z,0
2016-04-07T00:12:08.792Z,0
2016-04-07T00:13:08.747Z,0
2016-04-07T00:14:08.735Z,0
2016-04-07T00:15:08.815Z,0
2016-04-07T00:16:08.811Z,0
2016-04-07T00:17:08.858Z,0
2016-04-07T00:18:08.873Z,0
2016-04-07T00:19:08.936Z,0
2016-04-07T00:20:08.733Z,0
2016-04-07T00:21:08.858Z,0
2016-04-07T00:22:09.017Z,0
2016-04-07T00:23:09.035Z,0
2016-04-07T00:24:09.022Z,0
2016-04-07T00:25:09.244Z,0
2016-04-07T00:26:09.085Z,0
2016-04-07T00:27:09.062Z,0
2016-04-07T00:28:09.054Z,0
2016-04-07T00:29:09.080Z,0
2016-04-07T00:30:09.071Z,0
2016-04-07T00:31:09.094Z,0
2016-04-07T00:32:09.083Z,0
2016-04-07T00:33:09.087Z,0
2016-04-07T00:34:09.091Z,0
2016-04-07T00:35:09.081Z,0
2016-04-07T00:36:09.100Z,0
2016-04-07T00:37:09.104Z,0
2016-04-07T00:38:09.076Z,0
2016-04-07T00:39:09.127Z,0
2016-04-07T00:40:09.099Z,0
2016-04-07T00:41:09.087Z,0
2016-04-07T00:42:09.105Z,0
2016-04-07T00:43:09.109Z,0
2016-04-07T00:44:09.112Z,0
2016-04-07T00:45:09.098Z,0
2016-04-07T00:46:09.102Z,0
2016-04-07T00:47:09.120Z,0
2016-04-07T00:48:09.091Z,0
2016-04-07T00:49:09.094Z,0
2016-04-07T00:50:08.987Z,0
2016-04-07T00:51:09.115Z,0
2016-04-07T00:52:09.102Z,0
2016-04-07T00:53:09.136Z,0
2016-04-07T00:54:09.108Z,0
2016-04-07T00:55:09.126Z,0
2016-04-07T00:56:09.081Z,0
2016-04-07T00:57:09.116Z,0
2016-04-07T00:58:09.103Z,0
2016-04-07T00:59:09.089Z,0
2016-04-07T01:00:09.108Z,0
2016-04-07T01:01:09.111Z,0
2016-04-07T01:02:09.130Z,0
2016-04-07T01:03:09.100Z,0
2016-04-07T01:04:09.088Z,0
2016-04-07T01:05:09.091Z,0
2016-04-07T01:06:09.141Z,0
2016-04-07T01:07:09.096Z,0
2016-04-07T01:08:09.114Z,0
2016-04-07T01:09:09.102Z,0
2016-04-07T01:10:09.088Z,0
2016-04-07T01:11:09.138Z,0
2016-04-07T01:12:09.110Z,0
2016-04-07T01:13:09.080Z,0
2016-04-07T01:14:09.146Z,0
2016-04-07T01:15:09.118Z,0
2016-04-07T01:16:09.104Z,0
2016-04-07T01:17:09.075Z,0
2016-04-07T01:18:09.109Z,0
2016-04-07T01:19:09.112Z,0
2016-04-07T01:20:09.099Z,0
2016-04-07T01:21:09.087Z,0
2016-04-07T01:22:09.104Z,0
2016-04-07T01:23:09.123Z,0
2016-04-07T01:24:09.094Z,0
2016-04-07T01:25:09.128Z,0
2016-04-07T01:26:09.100Z,0
2016-04-07T01:27:09.134Z,0
2016-04-07T01:28:09.105Z,0
2016-04-07T01:29:09.077Z,0
2016-04-07T01:30:09.142Z,0
2016-04-07T01:31:09.113Z,0
2016-04-07T01:32:09.131Z,0
2016-04-07T01:33:09.103Z,0
2016-04-07T01:34:09.090Z,0
2016-04-07T01:35:09.139Z,0
2016-04-07T01:36:09.142Z,0
2016-04-07T01:37:09.130Z,0
2016-04-07T01:38:09.133Z,0
2016-04-07T01:39:09.104Z,0
2016-04-07T01:40:09.107Z,0
2016-04-07T01:41:09.109Z,0
2016-04-07T01:42:09.112Z,0
2016-04-07T01:43:09.099Z,0
2016-04-07T01:44:09.102Z,0
2016-04-07T01:45:09.120Z,0
2016-04-07T01:46:09.123Z,0
2016-04-07T01:47:09.093Z,0
2016-04-07T01:48:09.081Z,0
2016-04-07T01:49:09.099Z,0
2016-04-07T01:50:09.102Z,0
2016-04-07T01:51:09.120Z,0
2016-04-07T01:52:09.092Z,0
2016-04-07T01:53:09.110Z,0
2016-04-07T01:54:09.112Z,0
2016-04-07T01:55:09.100Z,0
2016-04-07T01:56:09.118Z,0
2016-04-07T01:57:09.105Z,0
2016-04-07T01:58:09.092Z,0
2016-04-07T01:59:09.125Z,0
2016-04-07T02:00:08.956Z,0
2016-04-07T02:01:08.334Z,0
2016-04-07T02:02:09.087Z,0
2016-04-07T02:03:09.089Z,0
2016-04-07T02:04:09.108Z,0
2016-04-07T02:05:09.095Z,0
2016-04-07T02:06:09.129Z,0
2016-04-07T02:07:09.085Z,0
2016-04-07T02:08:09.103Z,0
2016-04-07T02:09:09.091Z,0
2016-04-07T02:10:09.094Z,0
2016-04-07T02:11:09.096Z,0
2016-04-07T02:12:09.098Z,0
2016-04-07T02:13:09.102Z,0
2016-04-07T02:14:09.088Z,0
2016-04-07T02:15:09.076Z,0
2016-04-07T02:16:09.094Z,0
2016-04-07T02:17:09.096Z,0
2016-04-07T02:18:09.099Z,0
2016-04-07T02:19:09.087Z,0
2016-04-07T02:20:09.104Z,0
2016-04-07T02:21:09.123Z,0
2016-04-07T02:22:09.110Z,0
2016-04-07T02:23:09.081Z,0
2016-04-07T02:24:09.084Z,0
2016-04-07T02:25:09.103Z,0
2016-04-07T02:26:09.106Z,0
2016-04-07T02:27:09.076Z,0
2016-04-07T02:28:09.079Z,0
2016-04-07T02:29:09.082Z,0
2016-04-07T02:30:09.101Z,0
2016-04-07T02:31:09.103Z,0
2016-04-07T02:32:09.105Z,0
2016-04-07T02:33:09.108Z,0
2016-04-07T02:34:09.080Z,0
2016-04-07T02:35:09.067Z,0
2016-04-07T02:36:09.086Z,0
2016-04-07T02:37:09.072Z,0
2016-04-07T02:38:09.074Z,0
2016-04-07T02:39:09.124Z,0
2016-04-07T02:40:09.096Z,0
2016-04-07T02:41:09.082Z,0
2016-04-07T02:42:09.085Z,0
2016-04-07T02:43:09.104Z,0
2016-04-07T02:44:09.122Z,0
2016-04-07T02:45:09.109Z,0
2016-04-07T02:46:09.065Z,0
2016-04-07T02:47:09.068Z,0
2016-04-07T02:48:09.071Z,0
2016-04-07T02:49:09.073Z,0
2016-04-07T02:50:09.076Z,0
2016-04-07T02:51:09.079Z,0
2016-04-07T02:52:09.081Z,0
2016-04-07T02:53:09.099Z,0
2016-04-07T02:54:09.196Z,0
2016-04-07T02:55:09.090Z,0
2016-04-07T02:56:09.076Z,0
2016-04-07T02:57:09.064Z,0
2016-04-07T02:58:09.081Z,0
2016-04-07T02:59:09.069Z,0
2016-04-07T03:00:09.072Z,0
2016-04-07T03:01:09.090Z,0
2016-04-07T03:02:09.045Z,0
2016-04-07T03:03:09.080Z,0
2016-04-07T03:04:09.083Z,0
2016-04-07T03:05:09.070Z,0
2016-04-07T03:06:09.088Z,0
2016-04-07T03:07:09.075Z,0
2016-04-07T03:08:09.078Z,0
2016-04-07T03:09:09.017Z,0
2016-04-07T03:10:09.083Z,0
2016-04-07T03:11:09.086Z,0
2016-04-07T03:12:09.058Z,0
2016-04-07T03:13:09.090Z,0
2016-04-07T03:14:09.046Z,0
2016-04-07T03:15:09.080Z,0
2016-04-07T03:16:09.083Z,0
2016-04-07T03:17:09.085Z,0
2016-04-07T03:18:09.088Z,0
2016-04-07T03:19:09.059Z,0
2016-04-07T03:20:09.079Z,0
2016-04-07T03:21:09.065Z,0
2016-04-07T03:22:09.084Z,0
2016-04-07T03:23:09.054Z,0
2016-04-07T03:24:09.089Z,0
2016-04-07T03:25:09.076Z,0
2016-04-07T03:26:09.079Z,0
2016-04-07T03:27:09.050Z,0
2016-04-07T03:28:09.068Z,0
2016-04-07T03:29:09.071Z,0
2016-04-07T03:30:09.058Z,0
2016-04-07T03:31:09.092Z,0
2016-04-07T03:32:09.095Z,0
2016-04-07T03:33:09.098Z,0
2016-04-07T03:34:09.100Z,0
2016-04-07T03:35:09.119Z,0
2016-04-07T03:36:09.090Z,0
2016-04-07T03:37:09.093Z,0
2016-04-07T03:38:09.033Z,0
2016-04-07T03:39:09.130Z,0
2016-04-07T03:40:09.055Z,0
2016-04-07T03:41:09.041Z,0
2016-04-07T03:42:09.106Z,0
2016-04-07T03:43:09.062Z,0
2016-04-07T03:44:09.066Z,0
2016-04-07T03:45:09.068Z,0
2016-04-07T03:46:09.055Z,0
2016-04-07T03:47:09.058Z,0
2016-04-07T03:48:09.075Z,0
2016-04-07T03:49:08.921Z,0
2016-04-07T03:50:09.049Z,0
2016-04-07T03:51:09.068Z,0
2016-04-07T03:52:09.070Z,0
2016-04-07T03:53:09.058Z,0
2016-04-07T03:54:08.999Z,0
2016-04-07T03:55:09.095Z,0
2016-04-07T03:56:09.065Z,0
2016-04-07T03:57:09.084Z,0
2016-04-07T03:58:09.087Z,0
2016-04-07T03:59:09.058Z,0
2016-04-07T04:00:09.061Z,0
2016-04-07T04:01:09.064Z,0
2016-04-07T04:02:09.066Z,0
2016-04-07T04:03:09.053Z,0
2016-04-07T04:04:09.087Z,0
2016-04-07T04:05:09.075Z,0
2016-04-07T04:06:09.030Z,0
2016-04-07T04:07:08.923Z,0
2016-04-07T04:08:09.067Z,0
2016-04-07T04:09:09.320Z,0
2016-04-07T04:10:09.056Z,0
2016-04-07T04:11:09.059Z,0
2016-04-07T04:12:09.094Z,0
2016-04-07T04:13:09.080Z,0
2016-04-07T04:14:09.083Z,0
2016-04-07T04:15:09.086Z,0
2016-04-07T04:16:09.088Z,0
2016-04-07T04:17:09.060Z,0
2016-04-07T04:18:09.063Z,0
2016-04-07T04:19:09.081Z,0
2016-04-07T04:20:09.083Z,0
2016-04-07T04:21:09.086Z,0
2016-04-07T04:22:09.074Z,0
2016-04-07T04:23:09.060Z,0
2016-04-07T04:24:09.173Z,0
2016-04-07T04:25:09.066Z,0
2016-04-07T04:26:09.068Z,0
2016-04-07T04:27:09.056Z,0
2016-04-07T04:28:09.059Z,0
2016-04-07T04:29:09.062Z,0
2016-04-07T04:30:09.063Z,0
2016-04-07T04:31:09.066Z,0
2016-04-07T04:32:09.037Z,0
2016-04-07T04:33:09.087Z,0
2016-04-07T04:34:09.090Z,0
2016-04-07T04:35:09.139Z,0
2016-04-07T04:36:09.158Z,0
2016-04-07T04:37:09.050Z,0
2016-04-07T04:38:09.069Z,0
2016-04-07T04:39:09.197Z,0
2016-04-07T04:40:09.091Z,0
2016-04-07T04:41:09.078Z,0
2016-04-07T04:42:09.080Z,0
2016-04-07T04:43:09.066Z,0
2016-04-07T04:44:09.069Z,0
2016-04-07T04:45:08.307Z,0
2016-04-07T04:46:09.060Z,0
2016-04-07T04:47:09.093Z,0
2016-04-07T04:48:09.065Z,0
2016-04-07T04:49:09.068Z,0
2016-04-07T04:50:09.071Z,0
2016-04-07T04:51:09.073Z,0
2016-04-07T04:52:09.060Z,5
2016-04-07T04:53:09.063Z,5
2016-04-07T04:54:09.582Z,5
2016-04-07T04:55:09.068Z,5
2016-04-07T04:56:09.071Z,5
2016-04-07T04:57:09.090Z,5
2016-04-07T04:58:09.076Z,5
2016-04-07T04:59:09.079Z,5
2016-04-07T05:00:09.097Z,5
2016-04-07T05:01:09.068Z,5
2016-04-07T05:02:09.071Z,5
2016-04-07T05:03:09.090Z,5
2016-04-07T05:04:09.092Z,5
2016-04-07T05:05:09.095Z,5
2016-04-07T05:06:09.082Z,5
2016-04-07T05:07:09.070Z,10
2016-04-07T05:08:08.291Z,10
2016-04-07T05:09:09.169Z,10
2016-04-07T05:10:09.077Z,10
2016-04-07T05:11:09.095Z,10
2016-04-07T05:12:09.083Z,10
2016-04-07T05:13:09.054Z,15
2016-04-07T05:14:09.073Z,15
2016-04-07T05:15:09.075Z,15
2016-04-07T05:16:09.078Z,15
2016-04-07T05:17:09.065Z,15
2016-04-07T05:18:09.083Z,20
2016-04-07T05:19:08.914Z,20
2016-04-07T05:20:09.119Z,20
2016-04-07T05:21:09.091Z,15
2016-04-07T05:22:09.079Z,15
2016-04-07T05:23:08.909Z,15
2016-04-07T05:24:09.146Z,15
2016-04-07T05:25:09.086Z,10
2016-04-07T05:26:09.089Z,10
2016-04-07T05:27:09.076Z,10
2016-04-07T05:28:09.079Z,10
2016-04-07T05:29:09.098Z,10
2016-04-07T05:30:09.100Z,10
2016-04-07T05:31:09.071Z,5
2016-04-07T05:32:09.073Z,5
2016-04-07T05:33:09.092Z,5
2016-04-07T05:34:09.079Z,5
2016-04-07T05:35:09.067Z,5
2016-04-07T05:36:09.084Z,5
2016-04-07T05:37:09.087Z,5
2016-04-07T05:38:09.059Z,5
2016-04-07T05:39:09.062Z,5
2016-04-07T05:40:09.080Z,5
2016-04-07T05:41:09.098Z,5
2016-04-07T05:42:09.085Z,10
2016-04-07T05:43:09.056Z,10
2016-04-07T05:44:09.075Z,10
2016-04-07T05:45:09.078Z,10
2016-04-07T05:46:09.064Z,10
2016-04-07T05:47:09.083Z,15
2016-04-07T05:48:09.086Z,15
2016-04-07T05:49:08.902Z,20
2016-04-07T05:50:09.060Z,25
2016-04-07T05:51:09.047Z,35
2016-04-07T05:52:09.035Z,35
2016-04-07T05:53:09.068Z,35
2016-04-07T05:54:09.102Z,30
2016-04-07T05:55:09.043Z,25
2016-04-07T05:56:09.046Z,20
2016-04-07T05:57:09.094Z,15
2016-04-07T05:58:09.050Z,15
2016-04-07T05:59:09.037Z,15
2016-04-07T06:00:09.040Z,15
2016-04-07T06:01:09.073Z,15
2016-04-07T06:02:09.061Z,15
2016-04-07T06:03:09.064Z,15
2016-04-07T06:04:09.098Z,15
2016-04-07T06:05:09.131Z,20
2016-04-07T06:06:09.025Z,20
2016-04-07T06:07:09.058Z,30
2016-04-07T06:08:09.061Z,25
2016-04-07T06:09:09.022Z,20
2016-04-07T06:10:09.072Z,20
2016-04-07T06:11:09.059Z,20
2016-04-07T06:12:09.014Z,20
2016-04-07T06:13:09.064Z,20
2016-04-07T06:14:09.020Z,20
2016-04-07T06:15:09.022Z,20
2016-04-07T06:16:09.041Z,20
2016-04-07T06:17:08.888Z,25
2016-04-07T06:18:09.015Z,25
2016-04-07T06:19:08.861Z,25
2016-04-07T06:20:09.036Z,25
2016-04-07T06:21:09.008Z,25
2016-04-07T06:22:09.041Z,25
2016-04-07T06:23:09.029Z,25
2016-04-07T06:24:08.874Z,30
2016-04-07T06:25:08.909Z,40
2016-04-07T06:26:09.004Z,55
2016-04-07T06:27:09.023Z,50
2016-04-07T06:28:09.010Z,40
2016-04-07T06:29:09.013Z,45
2016-04-07T06:30:09.000Z,55
2016-04-07T06:31:09.034Z,60
2016-04-07T06:32:09.006Z,55
2016-04-07T06:33:09.008Z,65
2016-04-07T06:34:09.011Z,75
2016-04-07T06:35:09.029Z,80
2016-04-07T06:36:09.032Z,90
2016-04-07T06:37:09.003Z,100
2016-04-07T06:38:08.975Z,100
2016-04-07T06:39:08.977Z,105
2016-04-07T06:40:08.762Z,105
2016-04-07T06:41:09.014Z,105
2016-04-07T06:42:08.845Z,100
2016-04-07T06:43:09.005Z,95
2016-04-07T06:44:08.976Z,100
2016-04-07T06:45:09.010Z,110
2016-04-07T06:46:08.980Z,125
2016-04-07T06:47:09.030Z,135
2016-04-07T06:48:09.080Z,135
2016-04-07T06:49:08.974Z,140
2016-04-07T06:50:08.992Z,145
2016-04-07T06:51:08.994Z,155
2016-04-07T06:52:08.982Z,160
2016-04-07T06:53:08.984Z,150
2016-04-07T06:54:09.002Z,150
2016-04-07T06:55:09.004Z,150
2016-04-07T06:56:09.007Z,155
2016-04-07T06:57:08.963Z,155
2016-04-07T06:58:08.998Z,155
2016-04-07T06:59:08.985Z,155
2016-04-07T07:00:09.003Z,145
2016-04-07T07:01:09.006Z,130
2016-04-07T07:02:08.992Z,120
2016-04-07T07:03:08.979Z,125
2016-04-07T07:04:08.967Z,115
2016-04-07T07:05:08.970Z,115
2016-04-07T07:06:08.988Z,120
2016-04-07T07:07:08.990Z,125
2016-04-07T07:08:08.978Z,140
2016-04-07T07:09:08.981Z,160
2016-04-07T07:10:08.952Z,180
2016-04-07T07:11:08.986Z,195
2016-04-07T07:12:08.988Z,195
2016-04-07T07:13:08.835Z,190
2016-04-07T07:14:08.963Z,175
2016-04-07T07:15:08.966Z,155
2016-04-07T07:16:08.672Z,150
2016-04-07T07:17:09.033Z,140
2016-04-07T07:18:08.974Z,120
2016-04-07T07:19:08.991Z,100
2016-04-07T07:20:08.979Z,80
2016-04-07T07:21:08.997Z,70
2016-04-07T07:22:08.952Z,70
2016-04-07T07:23:08.955Z,65
2016-04-07T07:24:08.957Z,65
2016-04-07T07:25:08.960Z,70
2016-04-07T07:26:08.963Z,55
2016-04-07T07:27:08.951Z,50
2016-04-07T07:28:08.969Z,50
2016-04-07T07:29:08.956Z,70
2016-04-07T07:30:08.990Z,85
2016-04-07T07:31:09.023Z,115
2016-04-07T07:32:08.793Z,140
2016-04-07T07:33:08.972Z,150
2016-04-07T07:34:08.818Z,160
2016-04-07T07:35:08.962Z,145
2016-04-07T07:36:08.980Z,140
2016-04-07T07:37:08.952Z,130
2016-04-07T07:38:08.955Z,125
2016-04-07T07:39:08.957Z,140
2016-04-07T07:40:08.981Z,145
2016-04-07T07:41:08.936Z,140
2016-04-07T07:42:08.939Z,130
2016-04-07T07:43:08.801Z,120
2016-04-07T07:44:08.928Z,115
2016-04-07T07:45:08.963Z,115
2016-04-07T07:46:08.997Z,120
2016-04-07T07:47:08.937Z,130
2016-04-07T07:48:08.940Z,130
2016-04-07T07:49:08.958Z,130
2016-04-07T07:50:08.961Z,135
2016-04-07T07:51:08.979Z,135
2016-04-07T07:52:08.966Z,135
2016-04-07T07:53:08.937Z,140
2016-04-07T07:54:08.971Z,150
2016-04-07T07:55:08.927Z,155
2016-04-07T07:56:08.945Z,160
2016-04-07T07:57:08.963Z,155
2016-04-07T07:58:08.935Z,155
2016-04-07T07:59:08.954Z,155
2016-04-07T08:00:09.004Z,155
2016-04-07T08:01:08.974Z,165
2016-04-07T08:02:08.930Z,170
2016-04-07T08:03:08.933Z,170
2016-04-07T08:04:08.951Z,170
2016-04-07T08:05:08.954Z,155
2016-04-07T08:06:09.112Z,145
2016-04-07T08:07:08.912Z,140
2016-04-07T08:08:08.946Z,135
2016-04-07T08:09:08.809Z,135
2016-04-07T08:10:08.952Z,135
2016-04-07T08:11:08.939Z,130
2016-04-07T08:12:08.911Z,125
2016-04-07T08:13:08.928Z,120
2016-04-07T08:14:08.806Z,115
2016-04-07T08:15:08.934Z,105
2016-04-07T08:16:08.922Z,100
2016-04-07T08:17:08.940Z,95
2016-04-07T08:18:08.942Z,95
2016-04-07T08:19:08.945Z,100
2016-04-07T08:20:09.025Z,100
2016-04-07T08:21:08.981Z,100
2016-04-07T08:22:08.922Z,100
2016-04-07T08:23:08.940Z,100
2016-04-07T08:24:08.943Z,100
2016-04-07T08:25:08.913Z,105
2016-04-07T08:26:08.916Z,105
2016-04-07T08:27:08.935Z,100
2016-04-07T08:28:08.922Z,95
2016-04-07T08:29:08.957Z,95
2016-04-07T08:30:08.975Z,95
2016-04-07T08:31:08.977Z,95
2016-04-07T08:32:08.933Z,95
2016-04-07T08:33:08.967Z,90
2016-04-07T08:34:08.938Z,90
2016-04-07T08:35:08.987Z,95
2016-04-07T08:36:08.975Z,100
2016-04-07T08:37:08.917Z,100
2016-04-07T08:38:08.919Z,100
2016-04-07T08:39:08.953Z,115
2016-04-07T08:40:08.971Z,125
2016-04-07T08:41:08.958Z,135
2016-04-07T08:42:08.929Z,140
2016-04-07T08:43:08.932Z,140
2016-04-07T08:44:08.966Z,145
2016-04-07T08:45:08.969Z,150
2016-04-07T08:46:08.957Z,150
2016-04-07T08:47:08.943Z,145
2016-04-07T08:48:08.915Z,145
2016-04-07T08:49:08.932Z,145
2016-04-07T08:50:08.935Z,150
2016-04-07T08:51:08.922Z,160
2016-04-07T08:52:08.925Z,175
2016-04-07T08:53:08.943Z,190
2016-04-07T08:54:08.993Z,190
2016-04-07T08:55:08.964Z,185
2016-04-07T08:56:09.514Z,175
2016-04-07T08:57:08.939Z,160
2016-04-07T08:58:08.909Z,145
2016-04-07T08:59:08.944Z,145
2016-04-07T09:00:08.931Z,145
2016-04-07T09:01:08.934Z,145
2016-04-07T09:02:08.937Z,155
2016-04-07T09:03:08.923Z,155
2016-04-07T09:04:08.989Z,165
2016-04-07T09:05:08.913Z,165
2016-04-07T09:06:08.931Z,170
2016-04-07T09:07:08.933Z,185
2016-04-07T09:08:21.686Z,205
2016-04-07T09:09:08.939Z,215
2016-04-07T09:10:09.130Z,215
2016-04-07T09:11:08.944Z,215
2016-04-07T09:12:08.948Z,215
2016-04-07T09:13:08.950Z,210
2016-04-07T09:14:08.953Z,205
2016-04-07T09:15:08.940Z,200
2016-04-07T09:16:08.974Z,190
2016-04-07T09:17:08.946Z,180
2016-04-07T09:18:08.792Z,180
2016-04-07T09:19:08.966Z,170
2016-04-07T09:20:08.968Z,160
2016-04-07T09:21:08.957Z,150
2016-04-07T09:22:08.983Z,145
2016-04-07T09:23:09.022Z,145
2016-04-07T09:24:09.108Z,145
2016-04-07T09:25:09.147Z,145
2016-04-07T09:26:09.139Z,150
2016-04-07T09:27:12.163Z,150
2016-04-07T09:28:09.164Z,150
2016-04-07T09:29:09.195Z,155
2016-04-07T09:30:09.195Z,160
2016-04-07T09:31:09.196Z,170
2016-04-07T09:32:09.221Z,185
2016-04-07T09:33:09.213Z,190
2016-04-07T09:34:09.204Z,185
2016-04-07T09:35:09.227Z,185
2016-04-07T09:36:09.235Z,180
2016-04-07T09:37:09.240Z,170
2016-04-07T09:38:09.245Z,160
2016-04-07T09:39:09.234Z,160
2016-04-07T09:40:09.333Z,160
2016-04-07T09:41:09.274Z,175
2016-04-07T09:42:09.247Z,195
2016-04-07T09:43:09.234Z,205
2016-04-07T09:44:09.301Z,210
2016-04-07T09:45:09.288Z,205
2016-04-07T09:46:09.276Z,200
2016-04-07T09:47:09.294Z,200
2016-04-07T09:48:09.250Z,210
2016-04-07T09:49:09.238Z,240
2016-04-07T09:50:09.256Z,255
2016-04-07T09:51:09.290Z,265
2016-04-07T09:52:09.261Z,260
2016-04-07T09:53:09.295Z,265
2016-04-07T09:54:09.266Z,265
2016-04-07T09:55:09.332Z,260
2016-04-07T09:56:09.241Z,250
2016-04-07T09:57:09.118Z,230
2016-04-07T09:58:09.262Z,230
2016-04-07T09:59:09.265Z,240
2016-04-07T10:00:09.329Z,245
2016-04-07T10:01:09.270Z,240
2016-04-07T10:02:09.303Z,220
2016-04-07T10:03:09.306Z,205
2016-04-07T10:04:09.309Z,185
2016-04-07T10:05:09.312Z,180
2016-04-07T10:06:09.284Z,170
2016-04-07T10:07:09.287Z,165
2016-04-07T10:08:09.303Z,165
2016-04-07T10:09:09.306Z,170
2016-04-07T10:10:09.544Z,160
2016-04-07T10:11:09.297Z,150
2016-04-07T10:12:09.299Z,155
2016-04-07T10:13:09.270Z,145
2016-04-07T10:14:09.289Z,140
2016-04-07T10:15:09.291Z,135
2016-04-07T10:16:09.279Z,125
2016-04-07T10:17:09.297Z,115
2016-04-07T10:18:09.316Z,105
2016-04-07T10:19:09.303Z,95
2016-04-07T10:20:09.289Z,95
2016-04-07T10:21:09.339Z,95
2016-04-07T10:22:09.294Z,95
2016-04-07T10:23:09.314Z,95
2016-04-07T10:24:09.316Z,95
2016-04-07T10:25:09.428Z,95
2016-04-07T10:26:09.385Z,95
2016-04-07T10:27:09.324Z,90
2016-04-07T10:28:09.327Z,90
2016-04-07T10:29:09.298Z,90
2016-04-07T10:30:09.316Z,90
2016-04-07T10:31:09.303Z,90
2016-04-07T10:32:09.306Z,90
2016-04-07T10:33:09.324Z,85
2016-04-07T10:34:09.312Z,75
2016-04-07T10:35:09.299Z,70
2016-04-07T10:36:09.348Z,65
2016-04-07T10:37:09.335Z,65
2016-04-07T10:38:09.291Z,65
2016-04-07T10:39:09.294Z,65
2016-04-07T10:40:09.358Z,70
2016-04-07T10:41:09.345Z,95
2016-04-07T10:42:09.333Z,100
2016-04-07T10:43:09.320Z,105
2016-04-07T10:44:09.308Z,115
2016-04-07T10:45:09.311Z,120
2016-04-07T10:46:09.281Z,130
2016-04-07T10:47:09.284Z,130
2016-04-07T10:48:09.303Z,130
2016-04-07T10:49:09.321Z,135
2016-04-07T10:50:09.136Z,145
2016-04-07T10:51:09.342Z,145
2016-04-07T10:52:09.330Z,135
2016-04-07T10:53:09.332Z,130
2016-04-07T10:54:09.319Z,125
2016-04-07T10:55:09.368Z,120
2016-04-07T10:56:09.308Z,115
2016-04-07T10:57:09.327Z,120
2016-04-07T10:58:09.345Z,115
2016-04-07T10:59:09.301Z,110
2016-04-07T11:00:09.303Z,95
2016-04-07T11:01:09.321Z,90
2016-04-07T11:02:09.309Z,95
2016-04-07T11:03:09.312Z,100
2016-04-07T11:04:09.315Z,105
2016-04-07T11:05:09.317Z,115
2016-04-07T11:06:09.288Z,115
2016-04-07T11:07:09.322Z,115
2016-04-07T11:08:09.262Z,115
2016-04-07T11:09:09.280Z,120
2016-04-07T11:10:09.314Z,120
2016-04-07T11:11:09.270Z,120
2016-04-07T11:12:09.289Z,115
2016-04-07T11:13:09.276Z,115
2016-04-07T11:14:09.279Z,125
2016-04-07T11:15:09.297Z,140
2016-04-07T11:16:09.284Z,155
2016-04-07T11:17:09.317Z,160
2016-04-07T11:18:09.274Z,160
2016-04-07T11:19:09.308Z,155
2016-04-07T11:20:09.264Z,140
2016-04-07T11:21:09.251Z,130
2016-04-07T11:22:09.285Z,120
2016-04-07T11:23:09.288Z,115
2016-04-07T11:24:09.258Z,110
2016-04-07T11:25:09.480Z,110
2016-04-07T11:26:09.263Z,110
2016-04-07T11:27:09.282Z,110
2016-04-07T11:28:09.113Z,110
2016-04-07T11:29:09.272Z,110
2016-04-07T11:30:09.275Z,110
2016-04-07T11:31:09.277Z,115
2016-04-07T11:32:09.265Z,115
2016-04-07T11:33:09.252Z,115
2016-04-07T11:34:09.270Z,115
2016-04-07T11:35:09.288Z,125
2016-04-07T11:36:09.260Z,140
2016-04-07T11:37:09.903Z,150
2016-04-07T11:38:09.249Z,155
2016-04-07T11:39:09.252Z,165
2016-04-07T11:40:09.396Z,170
2016-04-07T11:41:09.101Z,170
2016-04-07T11:42:09.276Z,170
2016-04-07T11:43:09.279Z,170
2016-04-07T11:44:09.265Z,165
2016-04-07T11:45:09.284Z,160
2016-04-07T11:46:09.271Z,150
2016-04-07T11:47:09.273Z,145
2016-04-07T11:48:09.245Z,145
2016-04-07T11:49:09.248Z,150
2016-04-07T11:50:09.235Z,155
2016-04-07T11:51:09.269Z,160
2016-04-07T11:52:09.241Z,165
2016-04-07T11:53:09.289Z,170
2016-04-07T11:54:09.308Z,170
2016-04-07T11:55:09.170Z,165
2016-04-07T11:56:09.252Z,155
2016-04-07T11:57:09.238Z,145
2016-04-07T11:58:09.272Z,140
2016-04-07T11:59:09.260Z,145
2016-04-07T12:00:09.262Z,145
2016-04-07T12:01:09.265Z,150
2016-04-07T12:02:09.268Z,160
2016-04-07T12:03:09.254Z,155
2016-04-07T12:04:09.226Z,150
2016-04-07T12:05:09.260Z,155
2016-04-07T12:06:09.246Z,155
2016-04-07T12:07:09.265Z,160
2016-04-07T12:08:09.237Z,170
2016-04-07T12:09:09.270Z,175
2016-04-07T12:10:09.273Z,185
2016-04-07T12:11:09.244Z,190
2016-04-07T12:12:09.231Z,190
2016-04-07T12:13:09.250Z,200
2016-04-07T12:14:09.237Z,205
2016-04-07T12:15:09.256Z,215
2016-04-07T12:16:09.273Z,220
2016-04-07T12:17:09.245Z,225
2016-04-07T12:18:09.263Z,235
2016-04-07T12:19:09.234Z,235
2016-04-07T12:20:09.237Z,245
2016-04-07T12:21:09.239Z,260
2016-04-07T12:22:09.258Z,275
2016-04-07T12:23:09.307Z,285
2016-04-07T12:24:09.232Z,295
2016-04-07T12:25:09.250Z,325
2016-04-07T12:26:09.238Z,330
2016-04-07T12:27:09.256Z,330
2016-04-07T12:28:09.243Z,325
2016-04-07T12:29:09.246Z,305
2016-04-07T12:30:09.264Z,300
2016-04-07T12:31:09.266Z,300
2016-04-07T12:32:09.269Z,290
2016-04-07T12:33:09.240Z,285
2016-04-07T12:34:09.259Z,300
2016-04-07T12:35:09.246Z,295
2016-04-07T12:36:09.234Z,285
2016-04-07T12:37:09.268Z,295
2016-04-07T12:38:09.254Z,285
2016-04-07T12:39:09.273Z,285
2016-04-07T12:40:09.259Z,295
2016-04-07T12:41:09.247Z,325
2016-04-07T12:42:09.296Z,320
2016-04-07T12:43:09.237Z,290
2016-04-07T12:44:09.256Z,290
2016-04-07T12:45:09.273Z,295
2016-04-07T12:46:09.276Z,285
2016-04-07T12:47:09.263Z,285
2016-04-07T12:48:09.328Z,295
2016-04-07T12:49:09.268Z,300
2016-04-07T12:50:09.255Z,300
2016-04-07T12:51:09.274Z,280
2016-04-07T12:52:09.276Z,275
2016-04-07T12:53:09.311Z,280
2016-04-07T12:54:09.282Z,285
2016-04-07T12:55:09.285Z,270
2016-04-07T12:56:09.306Z,255
2016-04-07T12:57:09.277Z,255
2016-04-07T12:58:09.311Z,245
2016-04-07T12:59:09.298Z,245
2016-04-07T13:00:09.316Z,240
2016-04-07T13:01:09.304Z,245
2016-04-07T13:02:09.307Z,230
2016-04-07T13:03:09.293Z,225
2016-04-07T13:04:09.277Z,215
2016-04-07T13:05:09.299Z,215
2016-04-07T13:06:09.301Z,215
2016-04-07T13:07:09.320Z,225
2016-04-07T13:08:09.323Z,230
2016-04-07T13:09:09.309Z,235
2016-04-07T13:10:09.328Z,245
2016-04-07T13:11:09.331Z,245
2016-04-07T13:12:09.348Z,250
2016-04-07T13:13:09.161Z,250
2016-04-07T13:14:09.337Z,250
2016-04-07T13:15:09.339Z,255
2016-04-07T13:16:09.357Z,260
2016-04-07T13:17:09.172Z,250
2016-04-07T13:18:08.565Z,245
2016-04-07T13:19:09.349Z,240
2016-04-07T13:20:09.320Z,220
2016-04-07T13:21:09.339Z,210
2016-04-07T13:22:09.310Z,205
2016-04-07T13:23:09.329Z,205
2016-04-07T13:24:09.316Z,205
2016-04-07T13:25:09.366Z,210
2016-04-07T13:26:09.337Z,215
2016-04-07T13:27:09.355Z,215
2016-04-07T13:28:09.332Z,220
2016-04-07T13:29:09.334Z,205
2016-04-07T13:30:09.368Z,185
2016-04-07T13:31:09.183Z,165
2016-04-07T13:32:09.358Z,155
2016-04-07T13:33:09.346Z,145
2016-04-07T13:34:09.348Z,145
2016-04-07T13:35:09.397Z,150
2016-04-07T13:36:09.353Z,150
2016-04-07T13:37:09.340Z,140
2016-04-07T13:38:09.342Z,135
2016-04-07T13:39:09.361Z,130
2016-04-07T13:40:09.379Z,135
2016-04-07T13:41:09.351Z,135
2016-04-07T13:42:09.338Z,140
2016-04-07T13:43:09.340Z,150
2016-04-07T13:44:09.265Z,150
2016-04-07T13:45:09.362Z,155
2016-04-07T13:46:09.380Z,155
2016-04-07T13:47:09.351Z,165
2016-04-07T13:48:09.385Z,170
2016-04-07T13:49:09.356Z,155
2016-04-07T13:50:09.391Z,145
2016-04-07T13:51:09.378Z,140
2016-04-07T13:52:09.380Z,135
2016-04-07T13:53:09.367Z,140
2016-04-07T13:54:09.370Z,140
2016-04-07T13:55:09.373Z,125
2016-04-07T13:56:09.391Z,110
2016-04-07T13:57:09.378Z,105
2016-04-07T13:58:09.365Z,105
2016-04-07T13:59:09.368Z,105
2016-04-07T14:00:09.402Z,100
2016-04-07T14:01:09.374Z,100
2016-04-07T14:02:09.377Z,100
2016-04-07T14:03:09.394Z,100
2016-04-07T14:04:09.366Z,105
2016-04-07T14:05:09.384Z,100
2016-04-07T14:06:09.387Z,100
2016-04-07T14:07:09.357Z,95
2016-04-07T14:08:09.376Z,100
2016-04-07T14:09:09.395Z,100
2016-04-07T14:10:09.350Z,100
2016-04-07T14:11:09.385Z,100
2016-04-07T14:12:09.371Z,100